sensor_id;sensor_type;location;lat;lon;timestamp;P1;durP1;ratioP1;P2;durP2;ratioP2
24799;SDS011;12897;50.812;4.430;2023-09-19T00:02:05;8.60;;;1.82;;
24799;SDS011;12897;50.812;4.430;2023-09-19T00:04:34;5.73;;;1.73;;
24799;SDS011;12897;50.812;4.430;2023-09-19T00:07:03;16.12;;;3.00;;
24799;SDS011;12897;50.812;4.430;2023-09-19T00:09:30;14.23;;;2.17;;
24799;SDS011;12897;50.812;4.430;2023-09-19T00:11:59;9.90;;;2.00;;
24799;SDS011;12897;50.812;4.430;2023-09-19T00:14:27;12.33;;;1.90;;
24799;SDS011;12897;50.812;4.430;2023-09-19T00:16:54;10.28;;;1.98;;
24799;SDS011;12897;50.812;4.430;2023-09-19T00:19:23;7.78;;;1.50;;
24799;SDS011;12897;50.812;4.430;2023-09-19T00:21:50;9.23;;;2.22;;
24799;SDS011;12897;50.812;4.430;2023-09-19T00:24:19;10.75;;;2.75;;
24799;SDS011;12897;50.812;4.430;2023-09-19T00:26:48;10.90;;;1.77;;
24799;SDS011;12897;50.812;4.430;2023-09-19T00:29:16;14.20;;;2.05;;
24799;SDS011;12897;50.812;4.430;2023-09-19T00:31:44;12.85;;;2.08;;
24799;SDS011;12897;50.812;4.430;2023-09-19T00:34:11;16.00;;;2.33;;
24799;SDS011;12897;50.812;4.430;2023-09-19T00:36:39;13.68;;;2.37;;
24799;SDS011;12897;50.812;4.430;2023-09-19T00:39:06;8.20;;;2.20;;
24799;SDS011;12897;50.812;4.430;2023-09-19T00:41:34;10.08;;;2.10;;
24799;SDS011;12897;50.812;4.430;2023-09-19T00:44:02;12.63;;;2.00;;
24799;SDS011;12897;50.812;4.430;2023-09-19T00:46:31;16.75;;;2.30;;
24799;SDS011;12897;50.812;4.430;2023-09-19T00:48:58;10.48;;;2.08;;
24799;SDS011;12897;50.812;4.430;2023-09-19T00:51:26;17.42;;;2.12;;
24799;SDS011;12897;50.812;4.430;2023-09-19T00:53:55;8.23;;;2.05;;
24799;SDS011;12897;50.812;4.430;2023-09-19T00:56:25;21.65;;;2.52;;
24799;SDS011;12897;50.812;4.430;2023-09-19T00:58:53;13.32;;;2.20;;
24799;SDS011;12897;50.812;4.430;2023-09-19T01:01:20;9.88;;;2.17;;
24799;SDS011;12897;50.812;4.430;2023-09-19T01:03:54;13.28;;;3.15;;
24799;SDS011;12897;50.812;4.430;2023-09-19T01:06:18;12.23;;;2.02;;
24799;SDS011;12897;50.812;4.430;2023-09-19T01:08:46;16.07;;;2.15;;
24799;SDS011;12897;50.812;4.430;2023-09-19T01:11:21;11.30;;;2.52;;
24799;SDS011;12897;50.812;4.430;2023-09-19T01:16:37;10.15;;;2.10;;
24799;SDS011;12897;50.812;4.430;2023-09-19T01:22:07;12.63;;;2.05;;
24799;SDS011;12897;50.812;4.430;2023-09-19T01:25:12;11.60;;;2.42;;
24799;SDS011;12897;50.812;4.430;2023-09-19T01:28:00;11.50;;;1.65;;
24799;SDS011;12897;50.812;4.430;2023-09-19T01:30:40;9.78;;;1.67;;
24799;SDS011;12897;50.812;4.430;2023-09-19T01:33:10;14.40;;;2.65;;
24799;SDS011;12897;50.812;4.430;2023-09-19T01:35:38;7.72;;;1.72;;
24799;SDS011;12897;50.812;4.430;2023-09-19T01:38:06;14.03;;;2.20;;
24799;SDS011;12897;50.812;4.430;2023-09-19T01:40:40;10.65;;;1.87;;
24799;SDS011;12897;50.812;4.430;2023-09-19T01:43:15;11.88;;;2.37;;
24799;SDS011;12897;50.812;4.430;2023-09-19T01:45:50;14.80;;;2.40;;
24799;SDS011;12897;50.812;4.430;2023-09-19T01:51:14;16.35;;;2.92;;
24799;SDS011;12897;50.812;4.430;2023-09-19T01:53:55;8.33;;;2.20;;
24799;SDS011;12897;50.812;4.430;2023-09-19T01:56:44;15.63;;;2.60;;
24799;SDS011;12897;50.812;4.430;2023-09-19T01:59:24;11.88;;;2.30;;
24799;SDS011;12897;50.812;4.430;2023-09-19T02:01:49;11.18;;;2.30;;
24799;SDS011;12897;50.812;4.430;2023-09-19T02:04:18;8.90;;;1.95;;
24799;SDS011;12897;50.812;4.430;2023-09-19T02:06:46;14.47;;;2.20;;
24799;SDS011;12897;50.812;4.430;2023-09-19T02:09:14;14.90;;;2.45;;
24799;SDS011;12897;50.812;4.430;2023-09-19T02:11:42;14.53;;;2.85;;
24799;SDS011;12897;50.812;4.430;2023-09-19T02:14:09;14.50;;;2.55;;
24799;SDS011;12897;50.812;4.430;2023-09-19T02:16:37;7.65;;;2.02;;
24799;SDS011;12897;50.812;4.430;2023-09-19T02:19:05;13.03;;;2.72;;
24799;SDS011;12897;50.812;4.430;2023-09-19T02:21:33;10.08;;;1.67;;
24799;SDS011;12897;50.812;4.430;2023-09-19T02:24:02;9.18;;;2.15;;
24799;SDS011;12897;50.812;4.430;2023-09-19T02:26:31;14.83;;;2.22;;
24799;SDS011;12897;50.812;4.430;2023-09-19T02:29:00;7.70;;;2.12;;
24799;SDS011;12897;50.812;4.430;2023-09-19T02:31:29;12.83;;;2.10;;
24799;SDS011;12897;50.812;4.430;2023-09-19T02:33:57;9.23;;;2.08;;
24799;SDS011;12897;50.812;4.430;2023-09-19T02:36:26;18.25;;;2.50;;
24799;SDS011;12897;50.812;4.430;2023-09-19T02:38:53;11.80;;;2.10;;
24799;SDS011;12897;50.812;4.430;2023-09-19T02:41:21;16.40;;;2.55;;
24799;SDS011;12897;50.812;4.430;2023-09-19T02:43:48;13.88;;;2.30;;
24799;SDS011;12897;50.812;4.430;2023-09-19T02:46:16;19.07;;;2.58;;
24799;SDS011;12897;50.812;4.430;2023-09-19T02:48:44;12.28;;;2.30;;
24799;SDS011;12897;50.812;4.430;2023-09-19T02:51:11;16.85;;;2.42;;
24799;SDS011;12897;50.812;4.430;2023-09-19T02:53:39;13.95;;;2.22;;
24799;SDS011;12897;50.812;4.430;2023-09-19T02:56:08;15.85;;;2.50;;
24799;SDS011;12897;50.812;4.430;2023-09-19T02:58:37;6.25;;;1.57;;
24799;SDS011;12897;50.812;4.430;2023-09-19T03:01:08;11.70;;;2.15;;
24799;SDS011;12897;50.812;4.430;2023-09-19T03:03:40;12.53;;;2.65;;
24799;SDS011;12897;50.812;4.430;2023-09-19T03:06:08;14.05;;;2.22;;
24799;SDS011;12897;50.812;4.430;2023-09-19T03:08:35;11.78;;;2.30;;
24799;SDS011;12897;50.812;4.430;2023-09-19T03:11:05;7.12;;;2.33;;
24799;SDS011;12897;50.812;4.430;2023-09-19T03:13:35;13.00;;;2.40;;
24799;SDS011;12897;50.812;4.430;2023-09-19T03:16:03;13.68;;;3.05;;
24799;SDS011;12897;50.812;4.430;2023-09-19T03:18:31;14.15;;;2.22;;
24799;SDS011;12897;50.812;4.430;2023-09-19T03:21:02;15.95;;;2.10;;
24799;SDS011;12897;50.812;4.430;2023-09-19T03:23:30;11.12;;;2.10;;
24799;SDS011;12897;50.812;4.430;2023-09-19T03:25:58;15.15;;;2.37;;
24799;SDS011;12897;50.812;4.430;2023-09-19T03:28:26;11.08;;;2.00;;
24799;SDS011;12897;50.812;4.430;2023-09-19T03:31:01;15.75;;;2.52;;
24799;SDS011;12897;50.812;4.430;2023-09-19T03:33:28;14.38;;;2.20;;
24799;SDS011;12897;50.812;4.430;2023-09-19T03:35:57;20.23;;;2.47;;
24799;SDS011;12897;50.812;4.430;2023-09-19T03:38:26;15.98;;;2.65;;
24799;SDS011;12897;50.812;4.430;2023-09-19T03:40:55;13.55;;;2.58;;
24799;SDS011;12897;50.812;4.430;2023-09-19T03:43:23;13.80;;;2.37;;
24799;SDS011;12897;50.812;4.430;2023-09-19T03:46:00;12.63;;;2.17;;
24799;SDS011;12897;50.812;4.430;2023-09-19T03:48:23;12.93;;;2.25;;
24799;SDS011;12897;50.812;4.430;2023-09-19T03:50:50;9.15;;;1.90;;
24799;SDS011;12897;50.812;4.430;2023-09-19T03:53:19;12.98;;;2.58;;
24799;SDS011;12897;50.812;4.430;2023-09-19T03:55:47;16.25;;;2.75;;
24799;SDS011;12897;50.812;4.430;2023-09-19T03:58:14;13.10;;;2.15;;
24799;SDS011;12897;50.812;4.430;2023-09-19T04:00:42;17.92;;;3.37;;
24799;SDS011;12897;50.812;4.430;2023-09-19T04:03:10;15.55;;;1.92;;
24799;SDS011;12897;50.812;4.430;2023-09-19T04:05:39;13.93;;;2.25;;
24799;SDS011;12897;50.812;4.430;2023-09-19T04:08:07;17.45;;;2.35;;
24799;SDS011;12897;50.812;4.430;2023-09-19T04:10:34;9.55;;;2.10;;
24799;SDS011;12897;50.812;4.430;2023-09-19T04:13:02;17.10;;;2.25;;
24799;SDS011;12897;50.812;4.430;2023-09-19T04:15:30;11.48;;;2.33;;
24799;SDS011;12897;50.812;4.430;2023-09-19T04:17:58;11.63;;;2.65;;
24799;SDS011;12897;50.812;4.430;2023-09-19T04:20:25;10.95;;;2.75;;
24799;SDS011;12897;50.812;4.430;2023-09-19T04:22:53;21.85;;;2.55;;
24799;SDS011;12897;50.812;4.430;2023-09-19T04:25:21;13.72;;;2.72;;
24799;SDS011;12897;50.812;4.430;2023-09-19T04:27:48;13.85;;;2.40;;
24799;SDS011;12897;50.812;4.430;2023-09-19T04:30:16;11.75;;;2.15;;
24799;SDS011;12897;50.812;4.430;2023-09-19T04:32:43;10.28;;;1.98;;
24799;SDS011;12897;50.812;4.430;2023-09-19T04:35:13;12.45;;;2.45;;
24799;SDS011;12897;50.812;4.430;2023-09-19T04:37:40;11.05;;;2.05;;
24799;SDS011;12897;50.812;4.430;2023-09-19T04:40:08;12.70;;;2.33;;
24799;SDS011;12897;50.812;4.430;2023-09-19T04:42:44;14.03;;;2.25;;
24799;SDS011;12897;50.812;4.430;2023-09-19T04:45:11;7.95;;;2.10;;
24799;SDS011;12897;50.812;4.430;2023-09-19T04:47:41;12.18;;;2.17;;
24799;SDS011;12897;50.812;4.430;2023-09-19T04:50:09;17.23;;;2.40;;
24799;SDS011;12897;50.812;4.430;2023-09-19T04:52:40;11.95;;;2.30;;
24799;SDS011;12897;50.812;4.430;2023-09-19T04:55:13;12.13;;;1.85;;
24799;SDS011;12897;50.812;4.430;2023-09-19T04:57:45;13.35;;;2.33;;
24799;SDS011;12897;50.812;4.430;2023-09-19T05:00:14;17.87;;;3.00;;
24799;SDS011;12897;50.812;4.430;2023-09-19T05:02:45;13.18;;;2.58;;
24799;SDS011;12897;50.812;4.430;2023-09-19T05:05:15;17.27;;;2.60;;
24799;SDS011;12897;50.812;4.430;2023-09-19T05:07:42;13.05;;;2.62;;
24799;SDS011;12897;50.812;4.430;2023-09-19T05:10:13;11.60;;;2.40;;
24799;SDS011;12897;50.812;4.430;2023-09-19T05:12:45;15.50;;;2.30;;
24799;SDS011;12897;50.812;4.430;2023-09-19T05:15:14;11.85;;;2.50;;
24799;SDS011;12897;50.812;4.430;2023-09-19T05:17:49;10.72;;;2.22;;
24799;SDS011;12897;50.812;4.430;2023-09-19T05:20:20;13.18;;;2.22;;
24799;SDS011;12897;50.812;4.430;2023-09-19T05:23:00;10.95;;;2.00;;
24799;SDS011;12897;50.812;4.430;2023-09-19T05:25:29;10.70;;;1.87;;
24799;SDS011;12897;50.812;4.430;2023-09-19T05:28:00;12.07;;;1.82;;
24799;SDS011;12897;50.812;4.430;2023-09-19T05:30:29;11.25;;;2.35;;
24799;SDS011;12897;50.812;4.430;2023-09-19T05:32:59;16.67;;;2.05;;
24799;SDS011;12897;50.812;4.430;2023-09-19T05:35:27;13.88;;;2.25;;
24799;SDS011;12897;50.812;4.430;2023-09-19T05:37:57;15.73;;;2.03;;
24799;SDS011;12897;50.812;4.430;2023-09-19T05:40:25;11.68;;;2.85;;
24799;SDS011;12897;50.812;4.430;2023-09-19T05:42:53;14.87;;;2.33;;
24799;SDS011;12897;50.812;4.430;2023-09-19T05:45:21;10.38;;;2.02;;
24799;SDS011;12897;50.812;4.430;2023-09-19T05:47:52;10.38;;;2.02;;
24799;SDS011;12897;50.812;4.430;2023-09-19T05:50:24;16.25;;;2.52;;
24799;SDS011;12897;50.812;4.430;2023-09-19T05:52:53;12.50;;;2.17;;
24799;SDS011;12897;50.812;4.430;2023-09-19T05:55:22;11.50;;;2.62;;
24799;SDS011;12897;50.812;4.430;2023-09-19T05:57:52;13.60;;;2.30;;
24799;SDS011;12897;50.812;4.430;2023-09-19T06:00:21;11.12;;;2.30;;
24799;SDS011;12897;50.812;4.430;2023-09-19T06:02:58;13.60;;;2.33;;
24799;SDS011;12897;50.812;4.430;2023-09-19T06:07:57;10.40;;;2.12;;
24799;SDS011;12897;50.812;4.430;2023-09-19T06:10:29;17.65;;;2.80;;
24799;SDS011;12897;50.812;4.430;2023-09-19T06:12:58;11.10;;;2.17;;
24799;SDS011;12897;50.812;4.430;2023-09-19T06:15:28;15.88;;;2.22;;
24799;SDS011;12897;50.812;4.430;2023-09-19T06:17:58;21.85;;;3.10;;
24799;SDS011;12897;50.812;4.430;2023-09-19T06:20:28;14.28;;;2.67;;
24799;SDS011;12897;50.812;4.430;2023-09-19T06:22:56;18.95;;;3.72;;
24799;SDS011;12897;50.812;4.430;2023-09-19T06:25:23;13.80;;;2.65;;
24799;SDS011;12897;50.812;4.430;2023-09-19T06:27:52;14.38;;;2.10;;
24799;SDS011;12897;50.812;4.430;2023-09-19T06:30:23;12.45;;;2.67;;
24799;SDS011;12897;50.812;4.430;2023-09-19T06:32:57;12.82;;;2.30;;
24799;SDS011;12897;50.812;4.430;2023-09-19T06:35:26;14.73;;;2.77;;
24799;SDS011;12897;50.812;4.430;2023-09-19T06:37:55;20.23;;;2.58;;
24799;SDS011;12897;50.812;4.430;2023-09-19T06:40:24;12.63;;;2.25;;
24799;SDS011;12897;50.812;4.430;2023-09-19T06:42:53;10.45;;;2.05;;
24799;SDS011;12897;50.812;4.430;2023-09-19T06:45:42;8.38;;;2.15;;
24799;SDS011;12897;50.812;4.430;2023-09-19T06:48:10;16.40;;;2.60;;
24799;SDS011;12897;50.812;4.430;2023-09-19T06:50:38;17.65;;;2.60;;
24799;SDS011;12897;50.812;4.430;2023-09-19T06:53:06;15.88;;;2.33;;
24799;SDS011;12897;50.812;4.430;2023-09-19T06:55:35;9.20;;;1.70;;
24799;SDS011;12897;50.812;4.430;2023-09-19T06:58:05;12.82;;;1.72;;
24799;SDS011;12897;50.812;4.430;2023-09-19T07:00:35;19.55;;;2.58;;
24799;SDS011;12897;50.812;4.430;2023-09-19T07:03:07;10.98;;;2.40;;
24799;SDS011;12897;50.812;4.430;2023-09-19T07:05:38;11.05;;;2.47;;
24799;SDS011;12897;50.812;4.430;2023-09-19T07:08:09;12.73;;;2.02;;
24799;SDS011;12897;50.812;4.430;2023-09-19T07:10:39;14.30;;;2.33;;
24799;SDS011;12897;50.812;4.430;2023-09-19T07:13:10;15.35;;;1.87;;
24799;SDS011;12897;50.812;4.430;2023-09-19T07:15:38;12.88;;;1.90;;
24799;SDS011;12897;50.812;4.430;2023-09-19T07:20:38;9.85;;;1.70;;
24799;SDS011;12897;50.812;4.430;2023-09-19T07:23:06;11.55;;;2.72;;
24799;SDS011;12897;50.812;4.430;2023-09-19T07:25:34;9.05;;;2.12;;
24799;SDS011;12897;50.812;4.430;2023-09-19T07:28:02;14.40;;;3.12;;
24799;SDS011;12897;50.812;4.430;2023-09-19T07:30:35;9.70;;;2.17;;
24799;SDS011;12897;50.812;4.430;2023-09-19T07:33:02;14.40;;;2.83;;
24799;SDS011;12897;50.812;4.430;2023-09-19T07:35:32;13.03;;;2.17;;
24799;SDS011;12897;50.812;4.430;2023-09-19T07:38:00;13.97;;;2.27;;
24799;SDS011;12897;50.812;4.430;2023-09-19T07:40:27;11.63;;;2.37;;
24799;SDS011;12897;50.812;4.430;2023-09-19T07:42:56;14.53;;;2.77;;
24799;SDS011;12897;50.812;4.430;2023-09-19T07:45:25;7.55;;;2.30;;
24799;SDS011;12897;50.812;4.430;2023-09-19T07:47:52;7.40;;;1.92;;
24799;SDS011;12897;50.812;4.430;2023-09-19T07:50:21;17.02;;;2.40;;
24799;SDS011;12897;50.812;4.430;2023-09-19T07:52:50;13.38;;;2.45;;
24799;SDS011;12897;50.812;4.430;2023-09-19T07:57:48;11.87;;;2.10;;
24799;SDS011;12897;50.812;4.430;2023-09-19T08:00:15;7.67;;;2.08;;
24799;SDS011;12897;50.812;4.430;2023-09-19T08:02:43;12.07;;;2.00;;
24799;SDS011;12897;50.812;4.430;2023-09-19T08:05:13;14.55;;;2.33;;
24799;SDS011;12897;50.812;4.430;2023-09-19T08:07:45;18.17;;;3.22;;
24799;SDS011;12897;50.812;4.430;2023-09-19T08:10:16;14.45;;;2.37;;
24799;SDS011;12897;50.812;4.430;2023-09-19T08:12:45;16.10;;;2.20;;
24799;SDS011;12897;50.812;4.430;2023-09-19T08:15:18;7.95;;;2.00;;
24799;SDS011;12897;50.812;4.430;2023-09-19T08:17:47;13.72;;;2.35;;
24799;SDS011;12897;50.812;4.430;2023-09-19T08:20:16;17.23;;;2.35;;
24799;SDS011;12897;50.812;4.430;2023-09-19T08:22:51;7.10;;;1.85;;
24799;SDS011;12897;50.812;4.430;2023-09-19T08:25:23;12.50;;;2.25;;
24799;SDS011;12897;50.812;4.430;2023-09-19T08:27:55;12.18;;;2.60;;
24799;SDS011;12897;50.812;4.430;2023-09-19T08:30:25;10.08;;;2.42;;
24799;SDS011;12897;50.812;4.430;2023-09-19T08:32:57;13.32;;;2.20;;
24799;SDS011;12897;50.812;4.430;2023-09-19T08:35:31;11.08;;;2.40;;
24799;SDS011;12897;50.812;4.430;2023-09-19T08:37:55;10.65;;;2.30;;
24799;SDS011;12897;50.812;4.430;2023-09-19T08:40:23;7.83;;;1.80;;
24799;SDS011;12897;50.812;4.430;2023-09-19T08:42:55;10.95;;;2.15;;
24799;SDS011;12897;50.812;4.430;2023-09-19T08:45:24;15.18;;;2.67;;
24799;SDS011;12897;50.812;4.430;2023-09-19T08:50:56;11.97;;;2.05;;
24799;SDS011;12897;50.812;4.430;2023-09-19T08:53:26;7.97;;;1.80;;
24799;SDS011;12897;50.812;4.430;2023-09-19T08:55:51;14.95;;;2.20;;
24799;SDS011;12897;50.812;4.430;2023-09-19T08:58:20;9.83;;;1.77;;
24799;SDS011;12897;50.812;4.430;2023-09-19T09:00:50;6.35;;;2.00;;
24799;SDS011;12897;50.812;4.430;2023-09-19T09:03:19;11.60;;;2.30;;
24799;SDS011;12897;50.812;4.430;2023-09-19T09:05:49;10.13;;;1.98;;
24799;SDS011;12897;50.812;4.430;2023-09-19T09:10:47;13.88;;;2.33;;
24799;SDS011;12897;50.812;4.430;2023-09-19T09:13:15;9.03;;;1.87;;
24799;SDS011;12897;50.812;4.430;2023-09-19T09:15:45;13.75;;;3.00;;
24799;SDS011;12897;50.812;4.430;2023-09-19T09:18:14;10.43;;;1.95;;
24799;SDS011;12897;50.812;4.430;2023-09-19T09:20:41;10.50;;;2.30;;
24799;SDS011;12897;50.812;4.430;2023-09-19T09:23:10;12.58;;;2.12;;
24799;SDS011;12897;50.812;4.430;2023-09-19T09:25:52;9.50;;;2.00;;
24799;SDS011;12897;50.812;4.430;2023-09-19T09:28:23;8.63;;;1.95;;
24799;SDS011;12897;50.812;4.430;2023-09-19T09:30:51;9.73;;;1.80;;
24799;SDS011;12897;50.812;4.430;2023-09-19T09:33:20;8.28;;;1.57;;
24799;SDS011;12897;50.812;4.430;2023-09-19T09:35:51;9.53;;;2.22;;
24799;SDS011;12897;50.812;4.430;2023-09-19T09:38:25;12.18;;;2.27;;
24799;SDS011;12897;50.812;4.430;2023-09-19T09:40:56;13.28;;;1.87;;
24799;SDS011;12897;50.812;4.430;2023-09-19T09:43:35;10.50;;;2.27;;
24799;SDS011;12897;50.812;4.430;2023-09-19T09:46:06;9.50;;;1.92;;
24799;SDS011;12897;50.812;4.430;2023-09-19T09:49:00;3.75;;;1.65;;
24799;SDS011;12897;50.812;4.430;2023-09-19T09:51:45;8.00;;;1.70;;
24799;SDS011;12897;50.812;4.430;2023-09-19T09:54:28;6.58;;;1.72;;
24799;SDS011;12897;50.812;4.430;2023-09-19T09:57:11;6.58;;;1.52;;
24799;SDS011;12897;50.812;4.430;2023-09-19T09:59:55;7.28;;;1.87;;
24799;SDS011;12897;50.812;4.430;2023-09-19T10:02:35;8.70;;;2.00;;
24799;SDS011;12897;50.812;4.430;2023-09-19T10:07:50;7.47;;;1.60;;
24799;SDS011;12897;50.812;4.430;2023-09-19T10:10:42;9.55;;;1.80;;
24799;SDS011;12897;50.812;4.430;2023-09-19T10:13:13;8.55;;;1.92;;
24799;SDS011;12897;50.812;4.430;2023-09-19T10:15:43;7.47;;;1.70;;
24799;SDS011;12897;50.812;4.430;2023-09-19T10:18:14;9.05;;;2.10;;
24799;SDS011;12897;50.812;4.430;2023-09-19T10:23:16;9.10;;;1.75;;
24799;SDS011;12897;50.812;4.430;2023-09-19T10:25:53;8.53;;;1.50;;
24799;SDS011;12897;50.812;4.430;2023-09-19T10:30:56;19.48;;;1.70;;
24799;SDS011;12897;50.812;4.430;2023-09-19T10:33:25;3.62;;;1.30;;
24799;SDS011;12897;50.812;4.430;2023-09-19T10:35:56;7.20;;;1.37;;
24799;SDS011;12897;50.812;4.430;2023-09-19T10:38:27;8.50;;;1.40;;
24799;SDS011;12897;50.812;4.430;2023-09-19T10:40:59;6.83;;;1.27;;
24799;SDS011;12897;50.812;4.430;2023-09-19T10:43:29;7.30;;;1.37;;
24799;SDS011;12897;50.812;4.430;2023-09-19T10:46:00;10.20;;;1.70;;
24799;SDS011;12897;50.812;4.430;2023-09-19T10:48:32;4.90;;;1.10;;
24799;SDS011;12897;50.812;4.430;2023-09-19T10:51:09;8.00;;;1.40;;
24799;SDS011;12897;50.812;4.430;2023-09-19T10:53:59;4.78;;;1.60;;
24799;SDS011;12897;50.812;4.430;2023-09-19T10:56:27;4.05;;;0.90;;
24799;SDS011;12897;50.812;4.430;2023-09-19T10:59:10;7.33;;;1.37;;
24799;SDS011;12897;50.812;4.430;2023-09-19T11:01:46;8.35;;;1.45;;
24799;SDS011;12897;50.812;4.430;2023-09-19T11:04:35;2.12;;;0.88;;
24799;SDS011;12897;50.812;4.430;2023-09-19T11:07:04;8.95;;;1.55;;
24799;SDS011;12897;50.812;4.430;2023-09-19T11:09:48;8.60;;;1.60;;
24799;SDS011;12897;50.812;4.430;2023-09-19T11:15:04;6.40;;;1.20;;
24799;SDS011;12897;50.812;4.430;2023-09-19T11:30:41;6.62;;;1.20;;
24799;SDS011;12897;50.812;4.430;2023-09-19T11:33:19;15.13;;;1.67;;
24799;SDS011;12897;50.812;4.430;2023-09-19T11:51:55;5.70;;;1.20;;
24799;SDS011;12897;50.812;4.430;2023-09-19T11:54:23;1.57;;;0.95;;
24799;SDS011;12897;50.812;4.430;2023-09-19T11:56:52;5.95;;;1.37;;
24799;SDS011;12897;50.812;4.430;2023-09-19T11:59:21;3.45;;;1.22;;
24799;SDS011;12897;50.812;4.430;2023-09-19T12:02:05;4.95;;;1.00;;
24799;SDS011;12897;50.812;4.430;2023-09-19T12:04:37;2.92;;;1.10;;
24799;SDS011;12897;50.812;4.430;2023-09-19T12:07:13;5.22;;;1.40;;
24799;SDS011;12897;50.812;4.430;2023-09-19T12:09:40;6.92;;;1.00;;
24799;SDS011;12897;50.812;4.430;2023-09-19T12:12:22;5.78;;;1.47;;
24799;SDS011;12897;50.812;4.430;2023-09-19T12:14:54;4.45;;;1.20;;
24799;SDS011;12897;50.812;4.430;2023-09-19T12:17:36;6.35;;;1.20;;
24799;SDS011;12897;50.812;4.430;2023-09-19T12:20:12;6.17;;;1.25;;
24799;SDS011;12897;50.812;4.430;2023-09-19T12:22:43;7.40;;;0.95;;
24799;SDS011;12897;50.812;4.430;2023-09-19T12:25:17;6.87;;;1.12;;
24799;SDS011;12897;50.812;4.430;2023-09-19T12:27:43;6.33;;;1.05;;
24799;SDS011;12897;50.812;4.430;2023-09-19T12:30:18;6.95;;;0.85;;
24799;SDS011;12897;50.812;4.430;2023-09-19T12:32:46;3.87;;;0.95;;
24799;SDS011;12897;50.812;4.430;2023-09-19T12:35:34;6.93;;;1.30;;
24799;SDS011;12897;50.812;4.430;2023-09-19T12:38:00;3.92;;;0.90;;
24799;SDS011;12897;50.812;4.430;2023-09-19T12:40:29;13.65;;;1.92;;
24799;SDS011;12897;50.812;4.430;2023-09-19T12:45:27;4.03;;;1.12;;
24799;SDS011;12897;50.812;4.430;2023-09-19T12:51:00;3.40;;;1.30;;
24799;SDS011;12897;50.812;4.430;2023-09-19T12:53:40;8.23;;;1.10;;
24799;SDS011;12897;50.812;4.430;2023-09-19T12:56:10;2.77;;;1.00;;
24799;SDS011;12897;50.812;4.430;2023-09-19T12:58:50;4.47;;;0.95;;
24799;SDS011;12897;50.812;4.430;2023-09-19T13:01:22;5.17;;;0.82;;
24799;SDS011;12897;50.812;4.430;2023-09-19T13:04:12;3.72;;;1.12;;
24799;SDS011;12897;50.812;4.430;2023-09-19T13:06:45;3.15;;;1.20;;
24799;SDS011;12897;50.812;4.430;2023-09-19T13:09:16;4.25;;;1.30;;
24799;SDS011;12897;50.812;4.430;2023-09-19T13:11:47;6.58;;;1.22;;
24799;SDS011;12897;50.812;4.430;2023-09-19T13:14:20;4.35;;;1.20;;
24799;SDS011;12897;50.812;4.430;2023-09-19T13:19:37;3.47;;;1.17;;
24799;SDS011;12897;50.812;4.430;2023-09-19T13:22:42;11.00;;;1.32;;
24799;SDS011;12897;50.812;4.430;2023-09-19T13:25:18;4.80;;;1.00;;
24799;SDS011;12897;50.812;4.430;2023-09-19T13:27:47;5.13;;;1.30;;
24799;SDS011;12897;50.812;4.430;2023-09-19T13:30:18;10.58;;;1.60;;
24799;SDS011;12897;50.812;4.430;2023-09-19T13:32:47;6.12;;;1.10;;
24799;SDS011;12897;50.812;4.430;2023-09-19T13:35:15;10.23;;;1.20;;
24799;SDS011;12897;50.812;4.430;2023-09-19T13:37:46;7.28;;;1.50;;
24799;SDS011;12897;50.812;4.430;2023-09-19T13:40:18;4.78;;;1.30;;
24799;SDS011;12897;50.812;4.430;2023-09-19T13:42:46;7.58;;;1.30;;
24799;SDS011;12897;50.812;4.430;2023-09-19T13:45:14;5.03;;;1.30;;
24799;SDS011;12897;50.812;4.430;2023-09-19T13:47:43;4.15;;;1.20;;
24799;SDS011;12897;50.812;4.430;2023-09-19T13:50:12;4.80;;;1.27;;
24799;SDS011;12897;50.812;4.430;2023-09-19T13:52:40;5.20;;;1.57;;
24799;SDS011;12897;50.812;4.430;2023-09-19T13:55:08;3.52;;;1.02;;
24799;SDS011;12897;50.812;4.430;2023-09-19T13:57:36;6.12;;;1.42;;
24799;SDS011;12897;50.812;4.430;2023-09-19T14:00:03;3.95;;;1.05;;
24799;SDS011;12897;50.812;4.430;2023-09-19T14:02:33;6.72;;;1.22;;
24799;SDS011;12897;50.812;4.430;2023-09-19T14:05:02;9.63;;;1.22;;
24799;SDS011;12897;50.812;4.430;2023-09-19T14:07:30;7.30;;;1.30;;
24799;SDS011;12897;50.812;4.430;2023-09-19T14:09:57;6.97;;;1.40;;
24799;SDS011;12897;50.812;4.430;2023-09-19T14:12:25;5.08;;;1.12;;
24799;SDS011;12897;50.812;4.430;2023-09-19T14:14:53;5.67;;;1.30;;
24799;SDS011;12897;50.812;4.430;2023-09-19T14:17:22;6.55;;;1.52;;
24799;SDS011;12897;50.812;4.430;2023-09-19T14:19:51;4.87;;;1.20;;
24799;SDS011;12897;50.812;4.430;2023-09-19T14:22:19;9.95;;;1.27;;
24799;SDS011;12897;50.812;4.430;2023-09-19T14:24:49;6.55;;;1.52;;
24799;SDS011;12897;50.812;4.430;2023-09-19T14:27:17;6.55;;;1.30;;
24799;SDS011;12897;50.812;4.430;2023-09-19T14:29:47;3.62;;;1.40;;
24799;SDS011;12897;50.812;4.430;2023-09-19T14:32:16;9.38;;;1.40;;
24799;SDS011;12897;50.812;4.430;2023-09-19T14:34:47;4.40;;;1.52;;
24799;SDS011;12897;50.812;4.430;2023-09-19T14:37:14;5.78;;;1.82;;
24799;SDS011;12897;50.812;4.430;2023-09-19T14:39:46;6.67;;;1.35;;
24799;SDS011;12897;50.812;4.430;2023-09-19T14:42:14;7.87;;;1.45;;
24799;SDS011;12897;50.812;4.430;2023-09-19T14:44:43;9.70;;;2.00;;
24799;SDS011;12897;50.812;4.430;2023-09-19T14:47:12;9.23;;;1.62;;
24799;SDS011;12897;50.812;4.430;2023-09-19T14:49:41;7.70;;;1.52;;
24799;SDS011;12897;50.812;4.430;2023-09-19T14:52:09;4.47;;;1.50;;
24799;SDS011;12897;50.812;4.430;2023-09-19T14:54:39;7.83;;;1.30;;
24799;SDS011;12897;50.812;4.430;2023-09-19T14:57:07;6.17;;;1.40;;
24799;SDS011;12897;50.812;4.430;2023-09-19T14:59:35;12.07;;;1.87;;
24799;SDS011;12897;50.812;4.430;2023-09-19T15:02:03;6.70;;;1.72;;
24799;SDS011;12897;50.812;4.430;2023-09-19T15:04:32;6.53;;;1.60;;
24799;SDS011;12897;50.812;4.430;2023-09-19T15:07:00;5.55;;;1.90;;
24799;SDS011;12897;50.812;4.430;2023-09-19T15:09:28;5.40;;;1.77;;
24799;SDS011;12897;50.812;4.430;2023-09-19T15:11:57;5.85;;;1.70;;
24799;SDS011;12897;50.812;4.430;2023-09-19T15:14:25;9.75;;;1.72;;
24799;SDS011;12897;50.812;4.430;2023-09-19T15:16:55;4.53;;;1.60;;
24799;SDS011;12897;50.812;4.430;2023-09-19T15:19:23;10.13;;;1.80;;
24799;SDS011;12897;50.812;4.430;2023-09-19T15:21:51;4.50;;;1.55;;
24799;SDS011;12897;50.812;4.430;2023-09-19T15:24:19;4.83;;;1.75;;
24799;SDS011;12897;50.812;4.430;2023-09-19T15:26:47;7.03;;;1.72;;
24799;SDS011;12897;50.812;4.430;2023-09-19T15:29:16;4.65;;;1.62;;
24799;SDS011;12897;50.812;4.430;2023-09-19T15:31:46;5.28;;;2.05;;
24799;SDS011;12897;50.812;4.430;2023-09-19T15:34:17;6.95;;;1.62;;
24799;SDS011;12897;50.812;4.430;2023-09-19T15:36:44;10.13;;;1.50;;
24799;SDS011;12897;50.812;4.430;2023-09-19T15:39:11;7.90;;;3.22;;
24799;SDS011;12897;50.812;4.430;2023-09-19T15:41:41;7.08;;;1.60;;
24799;SDS011;12897;50.812;4.430;2023-09-19T15:44:13;6.28;;;1.52;;
24799;SDS011;12897;50.812;4.430;2023-09-19T15:46:41;3.47;;;1.32;;
24799;SDS011;12897;50.812;4.430;2023-09-19T15:49:11;6.35;;;1.80;;
24799;SDS011;12897;50.812;4.430;2023-09-19T15:51:39;9.23;;;1.80;;
24799;SDS011;12897;50.812;4.430;2023-09-19T15:54:10;3.58;;;1.35;;
24799;SDS011;12897;50.812;4.430;2023-09-19T15:56:40;4.28;;;1.30;;
24799;SDS011;12897;50.812;4.430;2023-09-19T15:59:08;8.13;;;1.65;;
24799;SDS011;12897;50.812;4.430;2023-09-19T16:01:38;5.72;;;1.60;;
24799;SDS011;12897;50.812;4.430;2023-09-19T16:04:09;6.95;;;1.40;;
24799;SDS011;12897;50.812;4.430;2023-09-19T16:06:37;5.70;;;1.55;;
24799;SDS011;12897;50.812;4.430;2023-09-19T16:09:05;5.03;;;1.40;;
24799;SDS011;12897;50.812;4.430;2023-09-19T16:11:33;6.97;;;2.42;;